sensor_id;sensor_type;location;lat;lon;timestamp;P1;durP1;ratioP1;P2;durP2;ratioP2
41261;SDS011;29629;52.532;13.352;2023-07-20T00:01:07;106.32;;;82.88;;
41261;SDS011;29629;52.532;13.352;2023-07-20T00:03:34;108.47;;;83.53;;
41261;SDS011;29629;52.532;13.352;2023-07-20T00:06:01;108.47;;;82.50;;
41261;SDS011;29629;52.532;13.352;2023-07-20T00:08:30;105.75;;;80.20;;
41261;SDS011;29629;52.532;13.352;2023-07-20T00:10:57;104.07;;;82.15;;
41261;SDS011;29629;52.532;13.352;2023-07-20T00:13:24;107.22;;;81.43;;
41261;SDS011;29629;52.532;13.352;2023-07-20T00:15:51;110.13;;;83.57;;
41261;SDS011;29629;52.532;13.352;2023-07-20T00:18:18;107.40;;;82.38;;
41261;SDS011;29629;52.532;13.352;2023-07-20T00:20:46;107.55;;;83.60;;
41261;SDS011;29629;52.532;13.352;2023-07-20T00:23:13;114.03;;;85.60;;
41261;SDS011;29629;52.532;13.352;2023-07-20T00:25:41;107.85;;;84.22;;
41261;SDS011;29629;52.532;13.352;2023-07-20T00:28:08;114.05;;;83.25;;
41261;SDS011;29629;52.532;13.352;2023-07-20T00:30:35;108.40;;;81.10;;
41261;SDS011;29629;52.532;13.352;2023-07-20T00:33:04;112.95;;;94.88;;
41261;SDS011;29629;52.532;13.352;2023-07-20T00:35:32;111.63;;;98.93;;
41261;SDS011;29629;52.532;13.352;2023-07-20T00:37:59;107.60;;;83.60;;
41261;SDS011;29629;52.532;13.352;2023-07-20T00:40:27;111.90;;;77.50;;
41261;SDS011;29629;52.532;13.352;2023-07-20T00:42:55;110.07;;;77.72;;
41261;SDS011;29629;52.532;13.352;2023-07-20T00:45:22;105.25;;;76.50;;
41261;SDS011;29629;52.532;13.352;2023-07-20T00:47:53;104.93;;;75.80;;
41261;SDS011;29629;52.532;13.352;2023-07-20T00:50:20;106.18;;;75.25;;
41261;SDS011;29629;52.532;13.352;2023-07-20T00:52:48;105.00;;;75.85;;
41261;SDS011;29629;52.532;13.352;2023-07-20T00:55:15;106.75;;;76.40;;
41261;SDS011;29629;52.532;13.352;2023-07-20T00:57:42;101.57;;;75.13;;
41261;SDS011;29629;52.532;13.352;2023-07-20T01:00:11;106.70;;;76.20;;
41261;SDS011;29629;52.532;13.352;2023-07-20T01:02:39;103.13;;;75.55;;
41261;SDS011;29629;52.532;13.352;2023-07-20T01:05:06;105.55;;;76.45;;
41261;SDS011;29629;52.532;13.352;2023-07-20T01:07:34;102.88;;;74.53;;
41261;SDS011;29629;52.532;13.352;2023-07-20T01:10:06;104.32;;;75.03;;
41261;SDS011;29629;52.532;13.352;2023-07-20T01:12:43;106.85;;;75.95;;
41261;SDS011;29629;52.532;13.352;2023-07-20T01:15:15;102.10;;;74.55;;
41261;SDS011;29629;52.532;13.352;2023-07-20T01:17:42;97.03;;;73.18;;
41261;SDS011;29629;52.532;13.352;2023-07-20T01:20:10;106.50;;;74.45;;
41261;SDS011;29629;52.532;13.352;2023-07-20T01:22:46;106.60;;;75.55;;
41261;SDS011;29629;52.532;13.352;2023-07-20T01:25:32;102.78;;;74.30;;
41261;SDS011;29629;52.532;13.352;2023-07-20T01:28:19;104.43;;;74.65;;
41261;SDS011;29629;52.532;13.352;2023-07-20T01:31:11;98.03;;;72.40;;
41261;SDS011;29629;52.532;13.352;2023-07-20T01:33:50;102.05;;;73.30;;
41261;SDS011;29629;52.532;13.352;2023-07-20T01:36:18;102.03;;;74.03;;
41261;SDS011;29629;52.532;13.352;2023-07-20T01:38:47;103.03;;;73.63;;
41261;SDS011;29629;52.532;13.352;2023-07-20T01:41:15;104.43;;;74.75;;
41261;SDS011;29629;52.532;13.352;2023-07-20T01:43:43;104.30;;;74.95;;
41261;SDS011;29629;52.532;13.352;2023-07-20T01:46:11;105.30;;;74.57;;
41261;SDS011;29629;52.532;13.352;2023-07-20T01:48:38;102.53;;;73.82;;
41261;SDS011;29629;52.532;13.352;2023-07-20T01:51:05;103.20;;;74.60;;
41261;SDS011;29629;52.532;13.352;2023-07-20T01:53:31;102.00;;;74.25;;
41261;SDS011;29629;52.532;13.352;2023-07-20T01:55:58;101.10;;;73.63;;
41261;SDS011;29629;52.532;13.352;2023-07-20T01:58:25;103.95;;;74.35;;
41261;SDS011;29629;52.532;13.352;2023-07-20T02:00:51;103.60;;;74.57;;
41261;SDS011;29629;52.532;13.352;2023-07-20T02:03:20;95.63;;;71.90;;
41261;SDS011;29629;52.532;13.352;2023-07-20T02:05:49;105.22;;;74.60;;
41261;SDS011;29629;52.532;13.352;2023-07-20T02:08:15;105.13;;;75.15;;
41261;SDS011;29629;52.532;13.352;2023-07-20T02:10:44;104.05;;;74.65;;
41261;SDS011;29629;52.532;13.352;2023-07-20T02:13:12;101.15;;;73.82;;
41261;SDS011;29629;52.532;13.352;2023-07-20T02:15:38;115.55;;;78.28;;
41261;SDS011;29629;52.532;13.352;2023-07-20T02:18:06;106.43;;;75.20;;
41261;SDS011;29629;52.532;13.352;2023-07-20T02:20:34;94.00;;;71.68;;
41261;SDS011;29629;52.532;13.352;2023-07-20T02:23:01;106.57;;;75.47;;
41261;SDS011;29629;52.532;13.352;2023-07-20T02:25:27;105.05;;;75.05;;
41261;SDS011;29629;52.532;13.352;2023-07-20T02:27:55;102.53;;;74.18;;
41261;SDS011;29629;52.532;13.352;2023-07-20T02:30:23;111.20;;;77.30;;
41261;SDS011;29629;52.532;13.352;2023-07-20T02:32:50;102.97;;;74.40;;
41261;SDS011;29629;52.532;13.352;2023-07-20T02:35:17;102.68;;;74.65;;
41261;SDS011;29629;52.532;13.352;2023-07-20T02:37:45;104.60;;;75.60;;
41261;SDS011;29629;52.532;13.352;2023-07-20T02:40:12;103.72;;;74.82;;
41261;SDS011;29629;52.532;13.352;2023-07-20T02:42:39;98.70;;;73.15;;
41261;SDS011;29629;52.532;13.352;2023-07-20T02:45:06;103.40;;;74.88;;
41261;SDS011;29629;52.532;13.352;2023-07-20T02:47:34;110.07;;;76.68;;
41261;SDS011;29629;52.532;13.352;2023-07-20T02:50:01;104.45;;;75.00;;
41261;SDS011;29629;52.532;13.352;2023-07-20T02:52:28;101.43;;;73.88;;
41261;SDS011;29629;52.532;13.352;2023-07-20T02:54:56;107.97;;;75.25;;
41261;SDS011;29629;52.532;13.352;2023-07-20T02:57:23;106.47;;;75.57;;
41261;SDS011;29629;52.532;13.352;2023-07-20T02:59:50;100.18;;;73.72;;
41261;SDS011;29629;52.532;13.352;2023-07-20T03:02:17;105.47;;;75.43;;
41261;SDS011;29629;52.532;13.352;2023-07-20T03:04:44;108.85;;;75.38;;
41261;SDS011;29629;52.532;13.352;2023-07-20T03:07:11;105.07;;;74.75;;
41261;SDS011;29629;52.532;13.352;2023-07-20T03:09:38;98.90;;;73.93;;
41261;SDS011;29629;52.532;13.352;2023-07-20T03:12:08;106.15;;;75.90;;
41261;SDS011;29629;52.532;13.352;2023-07-20T03:14:35;105.22;;;75.63;;
41261;SDS011;29629;52.532;13.352;2023-07-20T03:17:02;103.82;;;74.72;;
41261;SDS011;29629;52.532;13.352;2023-07-20T03:19:29;103.72;;;75.20;;
41261;SDS011;29629;52.532;13.352;2023-07-20T03:21:56;104.65;;;75.95;;
41261;SDS011;29629;52.532;13.352;2023-07-20T03:24:23;101.60;;;74.15;;
41261;SDS011;29629;52.532;13.352;2023-07-20T03:26:50;106.43;;;76.03;;
41261;SDS011;29629;52.532;13.352;2023-07-20T03:29:19;104.03;;;74.80;;
41261;SDS011;29629;52.532;13.352;2023-07-20T03:31:45;103.97;;;74.82;;
41261;SDS011;29629;52.532;13.352;2023-07-20T03:34:13;107.30;;;75.95;;
41261;SDS011;29629;52.532;13.352;2023-07-20T03:36:40;103.60;;;74.38;;
41261;SDS011;29629;52.532;13.352;2023-07-20T03:39:07;114.93;;;78.30;;
41261;SDS011;29629;52.532;13.352;2023-07-20T03:41:33;102.95;;;74.85;;
41261;SDS011;29629;52.532;13.352;2023-07-20T03:44:02;104.57;;;75.10;;
41261;SDS011;29629;52.532;13.352;2023-07-20T03:46:30;105.00;;;75.20;;
41261;SDS011;29629;52.532;13.352;2023-07-20T03:48:59;131.52;;;81.75;;
41261;SDS011;29629;52.532;13.352;2023-07-20T03:51:26;104.07;;;74.97;;
41261;SDS011;29629;52.532;13.352;2023-07-20T03:53:53;100.90;;;74.20;;
41261;SDS011;29629;52.532;13.352;2023-07-20T03:56:19;105.65;;;74.80;;
41261;SDS011;29629;52.532;13.352;2023-07-20T03:58:46;107.68;;;75.50;;
41261;SDS011;29629;52.532;13.352;2023-07-20T04:01:13;99.32;;;73.00;;
41261;SDS011;29629;52.532;13.352;2023-07-20T04:03:43;101.07;;;73.82;;
41261;SDS011;29629;52.532;13.352;2023-07-20T04:06:10;103.63;;;74.43;;
41261;SDS011;29629;52.532;13.352;2023-07-20T04:08:39;97.75;;;73.32;;
41261;SDS011;29629;52.532;13.352;2023-07-20T04:11:06;106.82;;;75.18;;
41261;SDS011;29629;52.532;13.352;2023-07-20T04:13:33;103.05;;;74.50;;
41261;SDS011;29629;52.532;13.352;2023-07-20T04:16:00;106.30;;;76.07;;
41261;SDS011;29629;52.532;13.352;2023-07-20T04:18:27;101.55;;;74.32;;
41261;SDS011;29629;52.532;13.352;2023-07-20T04:20:56;104.75;;;75.55;;
41261;SDS011;29629;52.532;13.352;2023-07-20T04:23:23;100.03;;;73.85;;
41261;SDS011;29629;52.532;13.352;2023-07-20T04:25:50;107.72;;;75.90;;
41261;SDS011;29629;52.532;13.352;2023-07-20T04:28:17;103.20;;;75.03;;
41261;SDS011;29629;52.532;13.352;2023-07-20T04:30:44;107.22;;;76.07;;
41261;SDS011;29629;52.532;13.352;2023-07-20T04:33:11;108.40;;;76.55;;
41261;SDS011;29629;52.532;13.352;2023-07-20T04:35:47;108.63;;;76.63;;
41261;SDS011;29629;52.532;13.352;2023-07-20T04:38:17;108.18;;;76.55;;
41261;SDS011;29629;52.532;13.352;2023-07-20T04:40:44;104.05;;;75.03;;
41261;SDS011;29629;52.532;13.352;2023-07-20T04:43:12;108.68;;;76.85;;
41261;SDS011;29629;52.532;13.352;2023-07-20T04:45:39;106.45;;;75.55;;
41261;SDS011;29629;52.532;13.352;2023-07-20T04:48:06;102.40;;;74.32;;
41261;SDS011;29629;52.532;13.352;2023-07-20T04:50:36;106.95;;;75.68;;
41261;SDS011;29629;52.532;13.352;2023-07-20T04:53:02;114.90;;;77.55;;
41261;SDS011;29629;52.532;13.352;2023-07-20T04:55:31;107.38;;;75.93;;
41261;SDS011;29629;52.532;13.352;2023-07-20T04:57:59;105.15;;;77.45;;
41261;SDS011;29629;52.532;13.352;2023-07-20T05:00:26;96.55;;;72.30;;
41261;SDS011;29629;52.532;13.352;2023-07-20T05:02:53;105.57;;;75.07;;
41261;SDS011;29629;52.532;13.352;2023-07-20T05:05:20;102.00;;;76.43;;
41261;SDS011;29629;52.532;13.352;2023-07-20T05:07:47;104.97;;;75.70;;
41261;SDS011;29629;52.532;13.352;2023-07-20T05:10:14;98.90;;;73.38;;
41261;SDS011;29629;52.532;13.352;2023-07-20T05:12:42;104.55;;;75.60;;
41261;SDS011;29629;52.532;13.352;2023-07-20T05:15:09;99.00;;;73.22;;
41261;SDS011;29629;52.532;13.352;2023-07-20T05:17:36;104.90;;;75.85;;
41261;SDS011;29629;52.532;13.352;2023-07-20T05:20:04;108.03;;;78.22;;
41261;SDS011;29629;52.532;13.352;2023-07-20T05:22:34;105.47;;;75.47;;
41261;SDS011;29629;52.532;13.352;2023-07-20T05:25:05;107.05;;;74.90;;
41261;SDS011;29629;52.532;13.352;2023-07-20T05:27:33;107.72;;;75.88;;
41261;SDS011;29629;52.532;13.352;2023-07-20T05:30:01;105.50;;;74.95;;
41261;SDS011;29629;52.532;13.352;2023-07-20T05:32:28;103.90;;;74.95;;
41261;SDS011;29629;52.532;13.352;2023-07-20T05:34:55;106.05;;;74.85;;
41261;SDS011;29629;52.532;13.352;2023-07-20T05:37:22;104.93;;;75.13;;
41261;SDS011;29629;52.532;13.352;2023-07-20T05:39:49;105.88;;;75.63;;
41261;SDS011;29629;52.532;13.352;2023-07-20T05:42:16;105.13;;;75.40;;
41261;SDS011;29629;52.532;13.352;2023-07-20T05:44:43;105.72;;;76.18;;
41261;SDS011;29629;52.532;13.352;2023-07-20T05:47:11;101.38;;;74.57;;
41261;SDS011;29629;52.532;13.352;2023-07-20T05:49:38;100.63;;;75.93;;
41261;SDS011;29629;52.532;13.352;2023-07-20T05:52:05;106.55;;;76.95;;
41261;SDS011;29629;52.532;13.352;2023-07-20T05:54:33;101.80;;;75.72;;
41261;SDS011;29629;52.532;13.352;2023-07-20T05:57:00;103.85;;;76.78;;
41261;SDS011;29629;52.532;13.352;2023-07-20T05:59:26;107.60;;;77.78;;
41261;SDS011;29629;52.532;13.352;2023-07-20T06:01:55;108.05;;;78.82;;
41261;SDS011;29629;52.532;13.352;2023-07-20T06:04:23;97.70;;;74.50;;
41261;SDS011;29629;52.532;13.352;2023-07-20T06:06:50;106.47;;;77.85;;
41261;SDS011;29629;52.532;13.352;2023-07-20T06:09:17;113.43;;;80.38;;
41261;SDS011;29629;52.532;13.352;2023-07-20T06:11:44;109.80;;;78.65;;
41261;SDS011;29629;52.532;13.352;2023-07-20T06:14:11;107.55;;;79.22;;
41261;SDS011;29629;52.532;13.352;2023-07-20T06:16:37;106.65;;;78.15;;
41261;SDS011;29629;52.532;13.352;2023-07-20T06:19:04;128.27;;;86.00;;
41261;SDS011;29629;52.532;13.352;2023-07-20T06:21:33;109.93;;;78.72;;
41261;SDS011;29629;52.532;13.352;2023-07-20T06:24:00;116.68;;;104.05;;
41261;SDS011;29629;52.532;13.352;2023-07-20T06:26:27;106.78;;;77.50;;
41261;SDS011;29629;52.532;13.352;2023-07-20T06:28:55;133.07;;;85.75;;
41261;SDS011;29629;52.532;13.352;2023-07-20T06:31:22;110.93;;;83.22;;
41261;SDS011;29629;52.532;13.352;2023-07-20T06:33:49;106.45;;;94.57;;
41261;SDS011;29629;52.532;13.352;2023-07-20T06:36:17;111.68;;;79.28;;
41261;SDS011;29629;52.532;13.352;2023-07-20T06:38:46;109.80;;;92.20;;
41261;SDS011;29629;52.532;13.352;2023-07-20T06:41:13;103.75;;;76.93;;
41261;SDS011;29629;52.532;13.352;2023-07-20T06:43:40;103.75;;;76.63;;
41261;SDS011;29629;52.532;13.352;2023-07-20T06:46:07;104.50;;;77.05;;
41261;SDS011;29629;52.532;13.352;2023-07-20T06:48:34;113.28;;;79.75;;
41261;SDS011;29629;52.532;13.352;2023-07-20T06:51:00;103.15;;;76.35;;
41261;SDS011;29629;52.532;13.352;2023-07-20T06:53:27;99.35;;;75.25;;
41261;SDS011;29629;52.532;13.352;2023-07-20T06:55:56;105.07;;;77.22;;
41261;SDS011;29629;52.532;13.352;2023-07-20T06:58:23;108.43;;;78.03;;
41261;SDS011;29629;52.532;13.352;2023-07-20T07:00:50;110.78;;;84.85;;
41261;SDS011;29629;52.532;13.352;2023-07-20T07:03:17;95.97;;;75.03;;
41261;SDS011;29629;52.532;13.352;2023-07-20T07:05:46;104.60;;;77.05;;
41261;SDS011;29629;52.532;13.352;2023-07-20T07:08:13;105.93;;;77.28;;
41261;SDS011;29629;52.532;13.352;2023-07-20T07:10:40;99.20;;;75.55;;
41261;SDS011;29629;52.532;13.352;2023-07-20T07:13:09;102.25;;;76.50;;
41261;SDS011;29629;52.532;13.352;2023-07-20T07:15:35;99.18;;;75.70;;
41261;SDS011;29629;52.532;13.352;2023-07-20T07:18:02;104.90;;;76.35;;
41261;SDS011;29629;52.532;13.352;2023-07-20T07:20:29;101.10;;;76.13;;
41261;SDS011;29629;52.532;13.352;2023-07-20T07:22:56;104.57;;;77.57;;
41261;SDS011;29629;52.532;13.352;2023-07-20T07:25:23;102.90;;;78.05;;
41261;SDS011;29629;52.532;13.352;2023-07-20T07:27:52;105.47;;;79.00;;
41261;SDS011;29629;52.532;13.352;2023-07-20T07:30:22;110.88;;;79.57;;
41261;SDS011;29629;52.532;13.352;2023-07-20T07:32:48;102.50;;;78.38;;
41261;SDS011;29629;52.532;13.352;2023-07-20T07:35:15;105.32;;;80.03;;
41261;SDS011;29629;52.532;13.352;2023-07-20T07:37:42;101.85;;;79.07;;
41261;SDS011;29629;52.532;13.352;2023-07-20T07:40:11;101.35;;;79.45;;
41261;SDS011;29629;52.532;13.352;2023-07-20T07:42:38;93.80;;;77.75;;
41261;SDS011;29629;52.532;13.352;2023-07-20T07:45:06;104.95;;;80.28;;
41261;SDS011;29629;52.532;13.352;2023-07-20T07:47:35;100.32;;;79.43;;
41261;SDS011;29629;52.532;13.352;2023-07-20T07:50:02;106.68;;;79.97;;
41261;SDS011;29629;52.532;13.352;2023-07-20T07:52:29;101.57;;;80.20;;
41261;SDS011;29629;52.532;13.352;2023-07-20T07:54:57;104.10;;;83.32;;
41261;SDS011;29629;52.532;13.352;2023-07-20T07:57:25;102.47;;;81.70;;
41261;SDS011;29629;52.532;13.352;2023-07-20T07:59:53;105.45;;;81.20;;
41261;SDS011;29629;52.532;13.352;2023-07-20T08:02:20;99.70;;;80.38;;
41261;SDS011;29629;52.532;13.352;2023-07-20T08:04:48;102.55;;;80.90;;
41261;SDS011;29629;52.532;13.352;2023-07-20T08:07:17;109.57;;;83.90;;
41261;SDS011;29629;52.532;13.352;2023-07-20T08:09:44;106.05;;;86.15;;
41261;SDS011;29629;52.532;13.352;2023-07-20T08:12:11;111.70;;;99.97;;
41261;SDS011;29629;52.532;13.352;2023-07-20T08:14:38;103.18;;;91.97;;
41261;SDS011;29629;52.532;13.352;2023-07-20T08:17:05;105.60;;;83.47;;
41261;SDS011;29629;52.532;13.352;2023-07-20T08:19:32;103.97;;;81.50;;
41261;SDS011;29629;52.532;13.352;2023-07-20T08:22:01;103.97;;;81.90;;
41261;SDS011;29629;52.532;13.352;2023-07-20T08:24:28;110.65;;;84.85;;
41261;SDS011;29629;52.532;13.352;2023-07-20T08:26:55;101.35;;;80.57;;
41261;SDS011;29629;52.532;13.352;2023-07-20T08:29:23;100.45;;;80.65;;
41261;SDS011;29629;52.532;13.352;2023-07-20T08:31:50;102.13;;;82.15;;
41261;SDS011;29629;52.532;13.352;2023-07-20T08:34:17;103.15;;;83.60;;
41261;SDS011;29629;52.532;13.352;2023-07-20T08:36:44;98.43;;;80.20;;
41261;SDS011;29629;52.532;13.352;2023-07-20T08:39:12;100.35;;;83.05;;
41261;SDS011;29629;52.532;13.352;2023-07-20T08:41:39;99.03;;;83.07;;
41261;SDS011;29629;52.532;13.352;2023-07-20T08:44:09;101.03;;;81.88;;
41261;SDS011;29629;52.532;13.352;2023-07-20T08:46:37;99.90;;;81.30;;
41261;SDS011;29629;52.532;13.352;2023-07-20T08:49:04;119.85;;;89.70;;
41261;SDS011;29629;52.532;13.352;2023-07-20T08:51:33;100.45;;;81.45;;
41261;SDS011;29629;52.532;13.352;2023-07-20T08:54:01;94.53;;;79.63;;
41261;SDS011;29629;52.532;13.352;2023-07-20T08:56:29;100.88;;;82.05;;
41261;SDS011;29629;52.532;13.352;2023-07-20T08:59:00;126.25;;;92.35;;
41261;SDS011;29629;52.532;13.352;2023-07-20T09:01:28;99.88;;;88.60;;
41261;SDS011;29629;52.532;13.352;2023-07-20T09:03:55;101.20;;;85.18;;
41261;SDS011;29629;52.532;13.352;2023-07-20T09:06:22;100.28;;;83.20;;
41261;SDS011;29629;52.532;13.352;2023-07-20T09:08:49;111.82;;;87.65;;
41261;SDS011;29629;52.532;13.352;2023-07-20T09:11:17;106.57;;;86.65;;
41261;SDS011;29629;52.532;13.352;2023-07-20T09:13:45;101.53;;;84.55;;
41261;SDS011;29629;52.532;13.352;2023-07-20T09:16:13;102.72;;;85.40;;
41261;SDS011;29629;52.532;13.352;2023-07-20T09:18:40;104.22;;;86.22;;
41261;SDS011;29629;52.532;13.352;2023-07-20T09:21:08;109.70;;;98.35;;
41261;SDS011;29629;52.532;13.352;2023-07-20T09:23:36;102.65;;;86.65;;
41261;SDS011;29629;52.532;13.352;2023-07-20T09:26:09;101.18;;;85.63;;
41261;SDS011;29629;52.532;13.352;2023-07-20T09:28:41;103.20;;;88.55;;
41261;SDS011;29629;52.532;13.352;2023-07-20T09:31:16;102.70;;;87.30;;
41261;SDS011;29629;52.532;13.352;2023-07-20T09:33:43;100.25;;;87.13;;
41261;SDS011;29629;52.532;13.352;2023-07-20T09:36:10;99.90;;;86.60;;
41261;SDS011;29629;52.532;13.352;2023-07-20T09:38:38;101.60;;;87.03;;
41261;SDS011;29629;52.532;13.352;2023-07-20T09:41:05;101.00;;;86.43;;
41261;SDS011;29629;52.532;13.352;2023-07-20T09:43:33;102.05;;;86.63;;
41261;SDS011;29629;52.532;13.352;2023-07-20T09:46:00;101.65;;;87.18;;
41261;SDS011;29629;52.532;13.352;2023-07-20T09:48:29;104.47;;;85.15;;
41261;SDS011;29629;52.532;13.352;2023-07-20T09:50:56;105.63;;;85.00;;
41261;SDS011;29629;52.532;13.352;2023-07-20T09:53:24;100.47;;;82.00;;
41261;SDS011;29629;52.532;13.352;2023-07-20T09:55:52;101.68;;;82.95;;
41261;SDS011;29629;52.532;13.352;2023-07-20T09:58:19;102.57;;;82.50;;
41261;SDS011;29629;52.532;13.352;2023-07-20T10:00:48;99.75;;;80.35;;
41261;SDS011;29629;52.532;13.352;2023-07-20T10:03:18;101.35;;;80.07;;
41261;SDS011;29629;52.532;13.352;2023-07-20T10:05:52;101.20;;;79.63;;
41261;SDS011;29629;52.532;13.352;2023-07-20T10:08:23;94.47;;;77.43;;
41261;SDS011;29629;52.532;13.352;2023-07-20T10:10:51;102.13;;;80.00;;
41261;SDS011;29629;52.532;13.352;2023-07-20T10:13:19;116.15;;;104.10;;
41261;SDS011;29629;52.532;13.352;2023-07-20T10:15:58;102.78;;;82.28;;
41261;SDS011;29629;52.532;13.352;2023-07-20T10:18:29;108.00;;;80.93;;
41261;SDS011;29629;52.532;13.352;2023-07-20T10:21:00;100.60;;;78.50;;
41261;SDS011;29629;52.532;13.352;2023-07-20T10:23:29;109.53;;;87.38;;
41261;SDS011;29629;52.532;13.352;2023-07-20T10:25:56;98.97;;;77.60;;
41261;SDS011;29629;52.532;13.352;2023-07-20T10:28:24;104.15;;;80.97;;
41261;SDS011;29629;52.532;13.352;2023-07-20T10:30:52;99.88;;;78.05;;
41261;SDS011;29629;52.532;13.352;2023-07-20T10:33:19;99.38;;;78.05;;
41261;SDS011;29629;52.532;13.352;2023-07-20T10:35:50;93.78;;;75.95;;
41261;SDS011;29629;52.532;13.352;2023-07-20T10:38:19;131.98;;;119.40;;
41261;SDS011;29629;52.532;13.352;2023-07-20T10:41:03;101.75;;;79.68;;
41261;SDS011;29629;52.532;13.352;2023-07-20T10:43:42;103.05;;;81.28;;
41261;SDS011;29629;52.532;13.352;2023-07-20T10:46:10;102.53;;;78.45;;
41261;SDS011;29629;52.532;13.352;2023-07-20T10:51:27;99.90;;;77.82;;
41261;SDS011;29629;52.532;13.352;2023-07-20T10:53:56;106.60;;;80.13;;
41261;SDS011;29629;52.532;13.352;2023-07-20T10:56:25;96.07;;;76.90;;
41261;SDS011;29629;52.532;13.352;2023-07-20T10:58:57;132.93;;;97.68;;
41261;SDS011;29629;52.532;13.352;2023-07-20T11:01:27;101.78;;;78.70;;
41261;SDS011;29629;52.532;13.352;2023-07-20T11:03:57;99.57;;;78.75;;
41261;SDS011;29629;52.532;13.352;2023-07-20T11:06:30;100.85;;;78.97;;
41261;SDS011;29629;52.532;13.352;2023-07-20T11:09:08;127.70;;;103.82;;
41261;SDS011;29629;52.532;13.352;2023-07-20T11:11:39;108.07;;;93.38;;
41261;SDS011;29629;52.532;13.352;2023-07-20T11:14:08;99.53;;;80.13;;
41261;SDS011;29629;52.532;13.352;2023-07-20T11:16:37;107.30;;;95.60;;
41261;SDS011;29629;52.532;13.352;2023-07-20T11:19:06;112.93;;;99.45;;
41261;SDS011;29629;52.532;13.352;2023-07-20T11:21:40;99.57;;;81.03;;
41261;SDS011;29629;52.532;13.352;2023-07-20T11:24:09;103.93;;;81.20;;
41261;SDS011;29629;52.532;13.352;2023-07-20T11:26:41;108.60;;;89.35;;
41261;SDS011;29629;52.532;13.352;2023-07-20T11:29:10;102.93;;;85.07;;
41261;SDS011;29629;52.532;13.352;2023-07-20T11:31:38;99.65;;;83.55;;
41261;SDS011;29629;52.532;13.352;2023-07-20T11:34:07;106.72;;;95.47;;
41261;SDS011;29629;52.532;13.352;2023-07-20T11:36:34;110.53;;;100.78;;
41261;SDS011;29629;52.532;13.352;2023-07-20T11:39:02;128.00;;;115.78;;
41261;SDS011;29629;52.532;13.352;2023-07-20T11:41:31;118.55;;;110.90;;
41261;SDS011;29629;52.532;13.352;2023-07-20T11:43:58;105.00;;;96.80;;
41261;SDS011;29629;52.532;13.352;2023-07-20T11:46:25;86.07;;;78.35;;
41261;SDS011;29629;52.532;13.352;2023-07-20T11:48:59;104.70;;;89.03;;
41261;SDS011;29629;52.532;13.352;2023-07-20T11:51:26;97.78;;;87.68;;
41261;SDS011;29629;52.532;13.352;2023-07-20T11:53:54;101.10;;;90.43;;
41261;SDS011;29629;52.532;13.352;2023-07-20T11:56:22;105.63;;;94.70;;
41261;SDS011;29629;52.532;13.352;2023-07-20T11:58:50;104.68;;;93.72;;
41261;SDS011;29629;52.532;13.352;2023-07-20T12:01:21;101.00;;;90.00;;
41261;SDS011;29629;52.532;13.352;2023-07-20T12:03:49;98.97;;;88.28;;
41261;SDS011;29629;52.532;13.352;2023-07-20T12:06:16;97.05;;;86.65;;
41261;SDS011;29629;52.532;13.352;2023-07-20T12:08:44;102.72;;;89.93;;
41261;SDS011;29629;52.532;13.352;2023-07-20T12:11:11;106.78;;;87.93;;
41261;SDS011;29629;52.532;13.352;2023-07-20T12:13:38;105.10;;;91.53;;
41261;SDS011;29629;52.532;13.352;2023-07-20T12:16:09;102.10;;;85.57;;
41261;SDS011;29629;52.532;13.352;2023-07-20T12:18:37;103.25;;;86.50;;
41261;SDS011;29629;52.532;13.352;2023-07-20T12:21:05;105.07;;;83.60;;
41261;SDS011;29629;52.532;13.352;2023-07-20T12:23:37;100.50;;;83.18;;
41261;SDS011;29629;52.532;13.352;2023-07-20T12:26:07;100.60;;;82.20;;
41261;SDS011;29629;52.532;13.352;2023-07-20T12:28:36;105.35;;;84.38;;
41261;SDS011;29629;52.532;13.352;2023-07-20T12:31:06;108.40;;;96.90;;
41261;SDS011;29629;52.532;13.352;2023-07-20T12:33:34;100.80;;;83.63;;
41261;SDS011;29629;52.532;13.352;2023-07-20T12:36:01;104.03;;;86.63;;
41261;SDS011;29629;52.532;13.352;2023-07-20T12:38:28;105.00;;;82.78;;
41261;SDS011;29629;52.532;13.352;2023-07-20T12:40:56;102.18;;;83.00;;
41261;SDS011;29629;52.532;13.352;2023-07-20T12:43:25;97.97;;;81.80;;
41261;SDS011;29629;52.532;13.352;2023-07-20T12:45:52;92.03;;;81.60;;
41261;SDS011;29629;52.532;13.352;2023-07-20T12:48:19;115.35;;;103.72;;
41261;SDS011;29629;52.532;13.352;2023-07-20T12:50:48;98.47;;;85.65;;
41261;SDS011;29629;52.532;13.352;2023-07-20T12:53:15;97.90;;;86.65;;
41261;SDS011;29629;52.532;13.352;2023-07-20T12:55:42;96.95;;;86.40;;
41261;SDS011;29629;52.532;13.352;2023-07-20T12:58:10;96.72;;;86.28;;
41261;SDS011;29629;52.532;13.352;2023-07-20T13:00:38;90.13;;;80.70;;
41261;SDS011;29629;52.532;13.352;2023-07-20T13:03:05;90.57;;;81.70;;
41261;SDS011;29629;52.532;13.352;2023-07-20T13:05:33;102.82;;;93.63;;
41261;SDS011;29629;52.532;13.352;2023-07-20T13:08:02;78.45;;;70.80;;
41261;SDS011;29629;52.532;13.352;2023-07-20T13:10:30;100.55;;;90.55;;
41261;SDS011;29629;52.532;13.352;2023-07-20T13:12:59;119.13;;;108.10;;
41261;SDS011;29629;52.532;13.352;2023-07-20T13:15:29;102.43;;;91.47;;
41261;SDS011;29629;52.532;13.352;2023-07-20T13:17:57;111.95;;;101.35;;
41261;SDS011;29629;52.532;13.352;2023-07-20T13:20:25;105.57;;;94.70;;
41261;SDS011;29629;52.532;13.352;2023-07-20T13:22:53;124.53;;;113.38;;
41261;SDS011;29629;52.532;13.352;2023-07-20T13:25:21;105.13;;;94.28;;
41261;SDS011;29629;52.532;13.352;2023-07-20T13:27:48;110.13;;;99.38;;
41261;SDS011;29629;52.532;13.352;2023-07-20T13:30:15;114.43;;;103.13;;
41261;SDS011;29629;52.532;13.352;2023-07-20T13:32:43;100.50;;;89.32;;
41261;SDS011;29629;52.532;13.352;2023-07-20T13:35:09;119.72;;;108.60;;
41261;SDS011;29629;52.532;13.352;2023-07-20T13:37:37;129.27;;;117.22;;
41261;SDS011;29629;52.532;13.352;2023-07-20T13:40:04;114.00;;;102.45;;
41261;SDS011;29629;52.532;13.352;2023-07-20T13:42:35;126.03;;;114.57;;
41261;SDS011;29629;52.532;13.352;2023-07-20T13:45:02;126.63;;;114.57;;
41261;SDS011;29629;52.532;13.352;2023-07-20T13:47:30;114.88;;;103.30;;
41261;SDS011;29629;52.532;13.352;2023-07-20T13:49:57;122.38;;;109.68;;
41261;SDS011;29629;52.532;13.352;2023-07-20T13:52:24;102.20;;;91.72;;
41261;SDS011;29629;52.532;13.352;2023-07-20T13:54:51;105.20;;;93.85;;
41261;SDS011;29629;52.532;13.352;2023-07-20T13:57:18;104.47;;;93.32;;
41261;SDS011;29629;52.532;13.352;2023-07-20T13:59:46;103.05;;;91.95;;
41261;SDS011;29629;52.532;13.352;2023-07-20T14:02:13;108.50;;;97.18;;
41261;SDS011;29629;52.532;13.352;2023-07-20T14:04:41;100.63;;;85.97;;
41261;SDS011;29629;52.532;13.352;2023-07-20T14:07:08;96.72;;;84.88;;